createdAt,value
2023-05-10T00:01:16.216Z,0.50
2023-05-10T00:04:03.450Z,0.40
2023-05-10T00:06:50.638Z,0.37
2023-05-10T00:09:38.925Z,0.50
2023-05-10T00:12:25.678Z,0.40
2023-05-10T00:15:13.009Z,0.40
2023-05-10T00:18:00.138Z,0.43
2023-05-10T00:20:47.345Z,0.50
2023-05-10T00:23:34.700Z,0.60
2023-05-10T00:26:23.113Z,0.60
2023-05-10T00:29:10.164Z,0.53
2023-05-10T00:31:57.289Z,0.40
2023-05-10T00:34:44.574Z,0.40
2023-05-10T00:37:31.176Z,0.40
2023-05-10T00:40:18.662Z,0.40
2023-05-10T00:43:07.295Z,0.57
2023-05-10T00:45:54.912Z,0.40
2023-05-10T00:48:42.283Z,0.43
2023-05-10T00:51:29.013Z,0.60
2023-05-10T00:54:17.325Z,0.50
2023-05-10T00:57:04.781Z,0.40
2023-05-10T00:59:53.396Z,0.40
2023-05-10T01:02:40.813Z,0.50
2023-05-10T01:05:28.590Z,0.50
2023-05-10T01:08:15.711Z,0.40
2023-05-10T01:11:03.360Z,0.47
2023-05-10T01:13:57.560Z,0.50
2023-05-10T01:16:47.968Z,0.77
2023-05-10T01:19:38.011Z,0.40
2023-05-10T01:22:55.395Z,0.40
2023-05-10T01:26:09.629Z,0.40
2023-05-10T01:29:18.883Z,0.53
2023-05-10T01:32:32.455Z,0.60
2023-05-10T01:35:25.098Z,0.60
2023-05-10T01:38:19.646Z,1.00
2023-05-10T01:41:17.080Z,0.33
2023-05-10T01:44:20.402Z,0.50
2023-05-10T01:47:11.245Z,0.50
2023-05-10T01:50:05.088Z,0.60
2023-05-10T01:52:55.734Z,0.50
2023-05-10T01:55:48.482Z,0.80
2023-05-10T01:58:38.597Z,0.60
2023-05-10T02:01:28.832Z,0.83
2023-05-10T02:04:19.549Z,0.50
2023-05-10T02:07:08.664Z,0.50
2023-05-10T02:09:56.751Z,0.50
2023-05-10T02:12:45.842Z,0.60
2023-05-10T02:15:33.473Z,0.70
2023-05-10T02:18:21.047Z,0.60
2023-05-10T02:21:08.178Z,0.83
2023-05-10T02:23:57.548Z,0.80
2023-05-10T02:26:46.339Z,0.60
2023-05-10T02:29:34.555Z,0.90
2023-05-10T02:32:21.763Z,0.60
2023-05-10T02:35:10.533Z,0.40
2023-05-10T02:38:01.353Z,0.87
2023-05-10T02:40:50.781Z,0.80
2023-05-10T02:43:39.702Z,0.80
2023-05-10T02:46:26.967Z,0.57
2023-05-10T02:49:13.865Z,0.77
2023-05-10T02:52:03.858Z,0.70
2023-05-10T02:54:54.348Z,0.73
2023-05-10T02:57:48.692Z,0.70
2023-05-10T03:00:36.553Z,0.60
2023-05-10T03:03:23.432Z,0.63
2023-05-10T03:06:10.602Z,0.70
2023-05-10T03:08:57.646Z,0.70
2023-05-10T03:11:57.675Z,0.70
2023-05-10T03:15:01.850Z,0.60
2023-05-10T03:17:54.132Z,0.60
2023-05-10T03:20:45.820Z,0.60
2023-05-10T03:23:37.941Z,0.70
2023-05-10T03:26:29.307Z,0.80
2023-05-10T03:29:17.979Z,0.77
2023-05-10T03:32:06.537Z,1.10
2023-05-10T03:34:53.740Z,0.90
2023-05-10T03:37:40.605Z,0.97
2023-05-10T03:40:29.854Z,0.83
2023-05-10T03:43:16.929Z,1.10
2023-05-10T03:46:04.497Z,0.97
2023-05-10T03:48:52.884Z,0.97
2023-05-10T03:51:39.970Z,0.93
2023-05-10T03:54:27.237Z,1.20
2023-05-10T03:57:18.227Z,0.90
2023-05-10T04:00:06.030Z,0.80
2023-05-10T04:02:52.975Z,1.03
2023-05-10T04:05:41.836Z,0.83
2023-05-10T04:08:28.981Z,0.73
2023-05-10T04:11:16.138Z,1.00
2023-05-10T04:14:03.380Z,0.60
2023-05-10T04:16:50.602Z,0.77
2023-05-10T04:19:38.055Z,0.90
2023-05-10T04:22:26.953Z,1.07
2023-05-10T04:25:14.155Z,0.70
2023-05-10T04:28:00.969Z,0.57
2023-05-10T04:30:48.466Z,0.80
2023-05-10T04:33:35.635Z,0.83
2023-05-10T04:36:22.560Z,0.67
2023-05-10T04:39:15.337Z,0.90
2023-05-10T04:42:03.846Z,0.77
2023-05-10T04:44:50.430Z,0.60
2023-05-10T04:47:38.085Z,0.70
2023-05-10T04:50:25.257Z,0.70
2023-05-10T04:53:13.165Z,1.00
2023-05-10T04:56:02.890Z,0.80
2023-05-10T04:58:50.528Z,0.73
2023-05-10T05:01:38.409Z,0.70
2023-05-10T05:04:25.595Z,0.60
2023-05-10T05:07:12.460Z,0.90
2023-05-10T05:09:59.325Z,1.00
2023-05-10T05:12:47.532Z,1.10
2023-05-10T05:15:34.460Z,0.93
2023-05-10T05:18:21.488Z,1.37
2023-05-10T05:21:17.877Z,0.97
2023-05-10T05:24:05.675Z,0.77
2023-05-10T05:26:53.006Z,0.90
2023-05-10T05:29:41.181Z,0.80
2023-05-10T05:32:27.926Z,0.70
2023-05-10T05:35:15.363Z,1.17
2023-05-10T05:38:02.408Z,1.10
2023-05-10T05:40:49.354Z,1.00
2023-05-10T05:43:38.148Z,0.87
2023-05-10T05:46:27.097Z,0.83
2023-05-10T05:49:14.334Z,0.70
2023-05-10T05:52:02.460Z,0.77
2023-05-10T05:54:49.062Z,0.90
2023-05-10T05:57:35.927Z,0.90
2023-05-10T06:00:23.769Z,1.30
2023-05-10T06:03:12.200Z,0.80
2023-05-10T06:05:59.515Z,0.93
2023-05-10T06:08:46.871Z,1.03
2023-05-10T06:11:34.147Z,1.00
2023-05-10T06:14:22.853Z,0.90
2023-05-10T06:17:09.807Z,1.03
2023-05-10T06:19:58.383Z,1.30
2023-05-10T06:22:45.427Z,1.70
2023-05-10T06:25:32.621Z,1.77
2023-05-10T06:28:19.448Z,1.27
2023-05-10T06:31:06.369Z,2.17
2023-05-10T06:33:55.339Z,1.10
2023-05-10T06:36:44.978Z,1.07
2023-05-10T06:39:32.103Z,1.00
2023-05-10T06:42:20.501Z,0.97
2023-05-10T06:45:08.716Z,1.03
2023-05-10T06:47:56.412Z,1.00
2023-05-10T06:50:43.693Z,1.10
2023-05-10T06:53:31.774Z,0.93
2023-05-10T06:56:18.497Z,0.60
2023-05-10T06:59:05.413Z,0.80
2023-05-10T07:01:52.529Z,0.90
2023-05-10T07:04:41.295Z,1.00
2023-05-10T07:07:28.149Z,0.77
2023-05-10T07:10:16.819Z,0.60
2023-05-10T07:13:03.618Z,0.70
2023-05-10T07:15:50.986Z,0.67
2023-05-10T07:18:38.058Z,0.50
2023-05-10T07:21:26.050Z,0.77
2023-05-10T07:24:13.727Z,1.17
2023-05-10T07:27:02.525Z,1.30
2023-05-10T07:29:49.638Z,1.50
2023-05-10T07:32:36.489Z,0.60
2023-05-10T07:35:23.281Z,0.70
2023-05-10T07:38:12.043Z,0.70
2023-05-10T07:40:59.162Z,1.27
2023-05-10T07:43:47.651Z,0.60
2023-05-10T07:46:34.426Z,0.60
2023-05-10T07:49:21.536Z,0.50
2023-05-10T07:52:08.714Z,0.67
2023-05-10T07:54:57.948Z,0.83
2023-05-10T07:57:45.061Z,0.50
2023-05-10T08:00:33.799Z,0.80
2023-05-10T08:03:20.930Z,0.50
2023-05-10T08:06:08.513Z,0.90
2023-05-10T08:08:56.591Z,0.60
2023-05-10T08:11:46.419Z,0.70
2023-05-10T08:14:33.449Z,0.80
2023-05-10T08:17:22.762Z,0.90
2023-05-10T08:20:11.294Z,0.80
2023-05-10T08:22:58.168Z,0.80
2023-05-10T08:25:45.455Z,1.10
2023-05-10T08:28:32.188Z,0.80
2023-05-10T08:31:19.166Z,0.90
2023-05-10T08:34:07.716Z,0.77
2023-05-10T08:36:54.338Z,0.80
2023-05-10T08:39:41.142Z,0.70
2023-05-10T08:42:31.094Z,1.17
2023-05-10T08:45:19.083Z,0.77
2023-05-10T08:48:09.802Z,0.80
2023-05-10T08:51:02.984Z,0.70
2023-05-10T08:53:50.270Z,0.70
2023-05-10T08:56:37.214Z,0.80
2023-05-10T08:59:24.672Z,0.82
2023-05-10T09:02:14.267Z,0.80
2023-05-10T09:05:02.197Z,0.93
2023-05-10T09:07:50.724Z,0.80
2023-05-10T09:10:38.059Z,0.70
2023-05-10T09:13:25.921Z,0.63
2023-05-10T09:16:21.389Z,0.90
2023-05-10T09:19:09.875Z,0.80
2023-05-10T09:21:57.267Z,0.73
2023-05-10T09:24:47.036Z,0.83
2023-05-10T09:27:36.775Z,0.80
2023-05-10T09:30:27.706Z,0.80
2023-05-10T09:33:15.901Z,0.70
2023-05-10T09:36:09.764Z,0.97
2023-05-10T09:38:57.044Z,0.70
2023-05-10T09:41:45.154Z,0.95
2023-05-10T09:44:32.689Z,0.83
2023-05-10T09:47:20.354Z,1.35
2023-05-10T09:50:08.649Z,0.90
2023-05-10T09:52:58.831Z,1.00
2023-05-10T09:55:47.079Z,1.08
2023-05-10T09:58:39.362Z,1.20
2023-05-10T10:01:28.678Z,1.33
2023-05-10T10:04:15.842Z,1.03
2023-05-10T10:07:05.220Z,1.03
2023-05-10T10:09:52.424Z,0.98
2023-05-10T10:12:39.240Z,0.68
2023-05-10T10:15:28.170Z,1.17
2023-05-10T10:18:24.810Z,0.90
2023-05-10T10:21:17.107Z,1.00
2023-05-10T10:24:06.379Z,0.90
2023-05-10T10:26:58.360Z,0.93
2023-05-10T10:29:54.749Z,0.80
2023-05-10T10:33:05.605Z,1.23
2023-05-10T10:36:00.634Z,0.75
2023-05-10T10:39:05.192Z,0.55
2023-05-10T10:41:53.171Z,0.98
2023-05-10T10:44:41.451Z,0.63
2023-05-10T10:47:34.245Z,0.73
2023-05-10T10:50:22.893Z,0.80
2023-05-10T10:53:13.998Z,0.80
2023-05-10T10:56:11.765Z,0.77
2023-05-10T10:59:02.739Z,0.70
2023-05-10T11:01:54.356Z,0.70
2023-05-10T11:04:47.456Z,0.98
2023-05-10T11:07:36.426Z,0.47
2023-05-10T11:10:23.741Z,0.77
2023-05-10T11:13:12.330Z,0.70
2023-05-10T11:16:00.289Z,0.55
2023-05-10T11:19:00.782Z,0.70
2023-05-10T11:21:49.782Z,0.65
2023-05-10T11:24:38.238Z,0.70
2023-05-10T11:27:28.735Z,1.00
2023-05-10T11:30:17.359Z,0.60
2023-05-10T11:33:04.836Z,0.75
2023-05-10T11:35:52.183Z,0.70
2023-05-10T11:38:39.212Z,0.63
2023-05-10T11:41:31.602Z,0.80
2023-05-10T11:44:18.437Z,0.60
2023-05-10T11:47:05.865Z,0.75
2023-05-10T11:49:56.081Z,0.70
2023-05-10T11:52:43.148Z,0.60
2023-05-10T11:55:31.489Z,0.52
2023-05-10T11:58:22.373Z,0.57
2023-05-10T12:01:11.488Z,0.50
2023-05-10T12:04:01.429Z,0.47
2023-05-10T12:06:49.189Z,0.93
2023-05-10T12:09:43.602Z,0.70
2023-05-10T12:12:39.131Z,0.77
2023-05-10T12:15:28.972Z,0.75
2023-05-10T12:18:16.701Z,0.57
2023-05-10T12:21:06.488Z,0.73
2023-05-10T12:23:54.998Z,0.80
2023-05-10T12:26:42.310Z,1.00
2023-05-10T12:29:32.902Z,0.90
2023-05-10T12:32:21.383Z,0.80
2023-05-10T12:35:09.466Z,0.63
2023-05-10T12:37:56.692Z,0.70
2023-05-10T12:40:43.824Z,0.90
2023-05-10T12:43:31.445Z,0.70
2023-05-10T12:46:19.609Z,0.60
2023-05-10T12:49:09.543Z,0.88
2023-05-10T12:51:57.275Z,0.60
2023-05-10T12:54:44.483Z,0.60
2023-05-10T12:57:31.722Z,0.68
2023-05-10T13:00:19.652Z,0.47
2023-05-10T13:03:07.331Z,0.60
2023-05-10T13:05:56.072Z,0.68
2023-05-10T13:08:42.646Z,0.75
2023-05-10T13:11:29.636Z,0.35
2023-05-10T13:14:16.823Z,0.40
2023-05-10T13:17:03.855Z,0.52
2023-05-10T13:19:50.522Z,0.70
2023-05-10T13:22:40.781Z,0.80
2023-05-10T13:25:28.255Z,0.40
2023-05-10T13:28:15.116Z,0.50
2023-05-10T13:31:02.108Z,0.60
2023-05-10T13:33:49.081Z,0.55
2023-05-10T13:36:36.173Z,0.63
2023-05-10T13:39:24.614Z,0.80
2023-05-10T13:42:11.950Z,0.75
2023-05-10T13:44:58.740Z,0.68
2023-05-10T13:47:45.905Z,1.05
2023-05-10T13:50:33.265Z,0.70
2023-05-10T13:53:20.435Z,0.80
2023-05-10T13:56:09.095Z,0.60
2023-05-10T13:58:56.225Z,0.70
2023-05-10T14:01:43.744Z,0.43
2023-05-10T14:04:31.424Z,0.50
2023-05-10T14:07:18.826Z,1.13
2023-05-10T14:10:06.458Z,0.63
2023-05-10T14:12:55.204Z,0.60
2023-05-10T14:15:42.438Z,0.70
2023-05-10T14:18:29.331Z,0.70
2023-05-10T14:21:17.479Z,0.50
2023-05-10T14:24:04.720Z,0.43
2023-05-10T14:26:54.677Z,0.55
2023-05-10T14:29:43.099Z,0.40
2023-05-10T14:32:33.161Z,0.60
2023-05-10T14:35:20.292Z,0.50
2023-05-10T14:38:07.219Z,0.47
2023-05-10T14:40:54.074Z,0.35
2023-05-10T14:43:41.170Z,0.40
2023-05-10T14:46:30.895Z,0.60
2023-05-10T14:49:18.045Z,0.40
2023-05-10T14:52:04.957Z,0.50
2023-05-10T14:54:51.890Z,0.50
2023-05-10T14:57:39.243Z,0.30
2023-05-10T15:00:26.534Z,0.60
2023-05-10T15:03:14.938Z,0.47
2023-05-10T15:06:02.327Z,0.55
2023-05-10T15:08:49.260Z,0.50
2023-05-10T15:11:36.310Z,0.40
2023-05-10T15:14:23.184Z,0.45
2023-05-10T15:17:10.089Z,0.47
2023-05-10T15:19:58.048Z,0.38
2023-05-10T15:22:44.956Z,0.63
2023-05-10T15:25:32.182Z,0.40
2023-05-10T15:28:19.018Z,0.60
2023-05-10T15:31:05.777Z,0.65
2023-05-10T15:33:53.043Z,0.60
2023-05-10T15:36:41.239Z,0.50
2023-05-10T15:39:28.115Z,0.47
2023-05-10T15:42:15.020Z,0.50
2023-05-10T15:45:01.705Z,0.45
2023-05-10T15:47:48.971Z,0.55
2023-05-10T15:50:36.000Z,0.63
2023-05-10T15:53:24.632Z,0.50
2023-05-10T15:56:11.655Z,0.70
2023-05-10T15:58:58.634Z,0.38
2023-05-10T16:01:45.956Z,0.60
2023-05-10T16:04:33.223Z,0.70
2023-05-10T16:07:19.810Z,0.50
2023-05-10T16:10:10.090Z,0.60
2023-05-10T16:12:57.154Z,0.60
2023-05-10T16:15:44.391Z,0.60
2023-05-10T16:18:31.204Z,0.50
2023-05-10T16:21:18.306Z,0.43
2023-05-10T16:24:06.692Z,0.60
2023-05-10T16:26:55.107Z,0.90
2023-05-10T16:29:41.982Z,0.60
2023-05-10T16:32:29.029Z,0.60
2023-05-10T16:35:16.627Z,0.68
2023-05-10T16:38:04.064Z,0.47
2023-05-10T16:40:51.062Z,0.63
2023-05-10T16:43:39.163Z,0.57
2023-05-10T16:46:26.421Z,0.55
2023-05-10T16:49:14.041Z,0.50
2023-05-10T16:52:01.466Z,0.73
2023-05-10T16:54:48.378Z,0.90
2023-05-10T16:57:35.547Z,0.57
2023-05-10T17:00:24.046Z,0.50
2023-05-10T17:03:11.610Z,0.57
2023-05-10T17:05:59.091Z,0.45
2023-05-10T17:08:46.810Z,0.60
2023-05-10T17:11:33.763Z,0.60
2023-05-10T17:14:20.893Z,0.55
2023-05-10T17:17:09.392Z,0.70
2023-05-10T17:19:56.522Z,0.30
2023-05-10T17:22:43.542Z,0.50
2023-05-10T17:25:30.436Z,0.40
2023-05-10T17:28:17.203Z,0.47
2023-05-10T17:31:04.316Z,0.32
2023-05-10T17:33:52.885Z,0.60
2023-05-10T17:36:40.064Z,0.33
2023-05-10T17:39:27.140Z,0.53
2023-05-10T17:42:14.924Z,0.40
2023-05-10T17:45:02.327Z,0.30
2023-05-10T17:47:49.219Z,0.50
2023-05-10T17:50:37.415Z,0.37
2023-05-10T17:53:24.771Z,0.50
2023-05-10T17:56:11.730Z,0.40
2023-05-10T17:58:58.441Z,0.40
2023-05-10T18:01:45.848Z,0.57
2023-05-10T18:04:32.957Z,0.60
2023-05-10T18:07:23.765Z,0.40
2023-05-10T18:10:12.421Z,0.50
2023-05-10T18:12:59.446Z,0.70
2023-05-10T18:15:46.070Z,0.63
2023-05-10T18:18:33.290Z,0.40
2023-05-10T18:21:20.064Z,0.30
2023-05-10T18:24:08.921Z,0.40
2023-05-10T18:26:56.102Z,0.30
2023-05-10T18:29:43.563Z,0.60
2023-05-10T18:32:30.546Z,0.40
2023-05-10T18:35:17.777Z,0.50
2023-05-10T18:38:05.037Z,0.60
2023-05-10T18:40:54.711Z,0.53
2023-05-10T18:43:42.493Z,0.60
2023-05-10T18:46:29.286Z,0.60
2023-05-10T18:49:16.422Z,0.60
2023-05-10T18:52:03.327Z,0.77
2023-05-10T18:54:51.177Z,0.50
2023-05-10T18:57:41.694Z,0.50
2023-05-10T19:00:28.609Z,0.30
2023-05-10T19:03:16.979Z,0.60
2023-05-10T19:06:04.295Z,0.73
2023-05-10T19:08:51.904Z,0.63
2023-05-10T19:11:38.886Z,0.50
2023-05-10T19:14:28.439Z,0.67
2023-05-10T19:17:19.011Z,1.27
2023-05-10T19:20:07.120Z,0.50
2023-05-10T19:23:09.018Z,0.70
2023-05-10T19:25:56.603Z,0.50
2023-05-10T19:28:43.591Z,0.53
2023-05-10T19:31:33.478Z,0.57
2023-05-10T19:34:20.707Z,0.50
2023-05-10T19:37:07.881Z,0.50
2023-05-10T19:39:55.448Z,0.57
2023-05-10T19:42:42.825Z,0.40
2023-05-10T19:45:30.137Z,0.50
2023-05-10T19:48:20.036Z,0.57
2023-05-10T19:51:09.948Z,0.50
2023-05-10T19:53:57.374Z,0.50
2023-05-10T19:56:44.212Z,0.60
2023-05-10T19:59:31.604Z,0.50
2023-05-10T20:02:18.760Z,0.40
2023-05-10T20:05:08.277Z,0.60
2023-05-10T20:07:55.058Z,0.43
2023-05-10T20:10:42.150Z,0.40
2023-05-10T20:13:29.997Z,0.50
2023-05-10T20:16:17.034Z,0.33
2023-05-10T20:19:04.197Z,0.50
2023-05-10T20:21:52.738Z,0.50
2023-05-10T20:24:39.610Z,0.67
2023-05-10T20:27:26.396Z,0.60
2023-05-10T20:30:14.050Z,0.47
2023-05-10T20:33:01.240Z,0.60
2023-05-10T20:35:48.410Z,0.40
2023-05-10T20:38:36.926Z,0.70
2023-05-10T20:41:24.901Z,0.43
2023-05-10T20:44:11.958Z,0.60
2023-05-10T20:46:59.092Z,0.53
2023-05-10T20:49:46.532Z,0.53
2023-05-10T20:52:33.654Z,0.67
2023-05-10T20:55:22.250Z,0.60
2023-05-10T20:58:09.399Z,0.50
2023-05-10T21:00:56.346Z,0.67
2023-05-10T21:03:43.124Z,0.40
2023-05-10T21:06:30.023Z,0.50
2023-05-10T21:09:17.147Z,0.50
2023-05-10T21:12:05.750Z,0.40
2023-05-10T21:14:52.385Z,0.50
2023-05-10T21:17:39.409Z,0.63
2023-05-10T21:20:26.675Z,0.40
2023-05-10T21:23:13.803Z,0.63
2023-05-10T21:26:02.699Z,0.57
2023-05-10T21:28:50.849Z,0.50
2023-05-10T21:31:37.844Z,0.50
2023-05-10T21:34:24.954Z,0.50
2023-05-10T21:37:11.595Z,0.77
2023-05-10T21:39:58.523Z,0.53
2023-05-10T21:42:49.313Z,0.80
2023-05-10T21:45:38.215Z,0.50
2023-05-10T21:48:25.605Z,0.50
2023-05-10T21:51:12.638Z,0.70
2023-05-10T21:53:59.450Z,0.57
2023-05-10T21:56:46.571Z,0.40
2023-05-10T21:59:33.649Z,0.60
2023-05-10T22:02:22.053Z,0.40
2023-05-10T22:05:09.680Z,0.60
2023-05-10T22:07:56.955Z,0.67
2023-05-10T22:10:43.701Z,0.60
2023-05-10T22:13:30.616Z,0.53
2023-05-10T22:16:17.461Z,0.50
2023-05-10T22:19:05.997Z,0.50
2023-05-10T22:21:54.070Z,0.30
2023-05-10T22:24:40.912Z,0.60
2023-05-10T22:27:28.055Z,0.63
2023-05-10T22:30:15.330Z,0.60
2023-05-10T22:33:02.251Z,0.50
2023-05-10T22:35:50.362Z,0.80
2023-05-10T22:38:37.552Z,0.63
2023-05-10T22:41:24.564Z,0.60
2023-05-10T22:44:11.261Z,0.57
2023-05-10T22:46:58.222Z,0.53
2023-05-10T22:49:45.482Z,0.40
2023-05-10T22:52:33.429Z,0.67
2023-05-10T22:55:19.889Z,0.30
2023-05-10T22:58:07.793Z,0.50
2023-05-10T23:00:55.986Z,0.50
2023-05-10T23:03:42.978Z,0.60
2023-05-10T23:06:29.624Z,0.60
2023-05-10T23:09:18.400Z,0.40
2023-05-10T23:12:05.505Z,0.60
2023-05-10T23:14:52.625Z,0.60
2023-05-10T23:17:39.305Z,0.40
2023-05-10T23:20:26.472Z,0.57
2023-05-10T23:23:13.405Z,0.50
2023-05-10T23:26:01.457Z,0.60
2023-05-10T23:28:48.364Z,0.50
2023-05-10T23:31:35.013Z,0.50
2023-05-10T23:34:22.096Z,0.77
2023-05-10T23:37:08.957Z,0.60
2023-05-10T23:39:56.113Z,0.50
2023-05-10T23:42:44.375Z,0.50
2023-05-10T23:45:31.290Z,0.47
2023-05-10T23:48:18.826Z,0.50
2023-05-10T23:51:05.959Z,0.50
2023-05-10T23:53:52.460Z,0.40
2023-05-10T23:56:39.103Z,0.57
2023-05-10T23:59:27.362Z,0.40
